Observation data for Friona on 01/20/2019      Previous  Date  Next       Current Mesonet Observations  Soil Data  Daily Summary Page  Observations in Plain Language
KFAS 200600Z 18010KT M01/M03 A3025 RMK A01 T10071028  RH  086%=      5-min Rain = 0
KFAS 200605Z 18011KT M01/M03 A3025 RMK A01 T10061028  RH  086%=      5-min Rain = 0
KFAS 200610Z 17011KT M01/M03 A3024 RMK A01 T10061029  RH  085%=      5-min Rain = 0
KFAS 200615Z 17009KT M01/M03 A3024 RMK A01 T10061029  RH  085%=      5-min Rain = 0
KFAS 200620Z 17010KT M01/M03 A3024 RMK A01 T10071029  RH  086%=      5-min Rain = 0
KFAS 200625Z 17010KT M01/M03 A3024 RMK A01 T10071029  RH  086%=      5-min Rain = 0
KFAS 200630Z 17011KT M01/M03 A3024 RMK A01 T10081028  RH  086%=      5-min Rain = 0
KFAS 200635Z 17011KT M01/M03 A3024 RMK A01 T10061028  RH  085%=      5-min Rain = 0
KFAS 200640Z 17011KT M01/M03 A3024 RMK A01 T10051029  RH  085%=      5-min Rain = 0
KFAS 200645Z 17011G16KT M00/M03 A3024 RMK A01 T10041028  RH  084%=      5-min Rain = 0
KFAS 200650Z 18010KT M00/M03 A3024 RMK A01 T10031029  RH  083%=      5-min Rain = 0
KFAS 200655Z 18011KT M00/M03 A3024 RMK A01 T10031030  RH  083%=      5-min Rain = 0
KFAS 200700Z 17011KT M00/M03 A3024 RMK A01 T10021030  RH  082%=      5-min Rain = 0
KFAS 200705Z 18009KT M00/M03 A3025 RMK A01 T10031031  RH  082%=      5-min Rain = 0
KFAS 200710Z 19006G11KT M01/M03 A3025 RMK A01 T10051033  RH  082%=      5-min Rain = 0
KFAS 200715Z 18008KT M01/M03 A3024 RMK A01 T10071032  RH  084%=      5-min Rain = 0
KFAS 200720Z 17008KT M01/M03 A3024 RMK A01 T10081032  RH  084%=      5-min Rain = 0
KFAS 200725Z 17007KT M01/M03 A3024 RMK A01 T10091034  RH  084%=      5-min Rain = 0
KFAS 200730Z 17007KT M01/M03 A3024 RMK A01 T10101033  RH  085%=      5-min Rain = 0
KFAS 200735Z 17008KT M01/M04 A3024 RMK A01 T10121035  RH  085%=      5-min Rain = 0
KFAS 200740Z 17009KT M01/M03 A3024 RMK A01 T10121033  RH  086%=      5-min Rain = 0
KFAS 200745Z 18008KT M01/M03 A3024 RMK A01 T10121034  RH  086%=      5-min Rain = 0
KFAS 200750Z 18009KT M01/M03 A3024 RMK A01 T10121033  RH  086%=      5-min Rain = 0
KFAS 200755Z 17009KT M01/M03 A3024 RMK A01 T10121033  RH  086%=      5-min Rain = 0
KFAS 200800Z 18009KT M01/M03 A3024 RMK A01 T10121033  RH  086%=      5-min Rain = 0
KFAS 200805Z 17008KT M01/M03 A3024 RMK A01 T10111034  RH  085%=      5-min Rain = 0
KFAS 200810Z 17008KT M01/M04 A3024 RMK A01 T10131036  RH  085%=      5-min Rain = 0
KFAS 200815Z 17008KT M01/M04 A3024 RMK A01 T10141036  RH  086%=      5-min Rain = 0
KFAS 200820Z 18008KT M02/M04 A3024 RMK A01 T10151036  RH  086%=      5-min Rain = 0
KFAS 200825Z 17009KT M02/M04 A3024 RMK A01 T10151036  RH  086%=      5-min Rain = 0
KFAS 200830Z 17009KT M02/M04 A3023 RMK A01 T10151036  RH  086%=      5-min Rain = 0
KFAS 200835Z 17009KT M02/M04 A3023 RMK A01 T10151036  RH  086%=      5-min Rain = 0
KFAS 200840Z 17010KT M02/M04 A3023 RMK A01 T10151036  RH  086%=      5-min Rain = 0
KFAS 200845Z 17010KT M01/M04 A3023 RMK A01 T10141036  RH  085%=      5-min Rain = 0
KFAS 200850Z 17010KT M01/M04 A3023 RMK A01 T10131036  RH  085%=      5-min Rain = 0
KFAS 200855Z 17010KT M01/M04 A3023 RMK A01 T10121036  RH  084%=      5-min Rain = 0
KFAS 200900Z 17010KT M01/M04 A3023 RMK A01 T10121036  RH  084%=      5-min Rain = 0
KFAS 200905Z 17010KT M01/M04 A3023 RMK A01 T10111036  RH  084%=      5-min Rain = 0
KFAS 200910Z 17010KT M01/M04 A3023 RMK A01 T10091035  RH  083%=      5-min Rain = 0
KFAS 200915Z 17011KT M01/M03 A3023 RMK A01 T10081034  RH  083%=      5-min Rain = 0
KFAS 200920Z 18010KT M01/M03 A3023 RMK A01 T10061034  RH  082%=      5-min Rain = 0
KFAS 200925Z 18011KT M00/M03 A3023 RMK A01 T10041034  RH  081%=      5-min Rain = 0
KFAS 200930Z 18010KT M00/M03 A3022 RMK A01 T10041034  RH  080%=      5-min Rain = 0
KFAS 200935Z 18010KT M01/M03 A3023 RMK A01 T10051034  RH  081%=      5-min Rain = 0
KFAS 200940Z 18010KT M00/M03 A3023 RMK A01 T10041034  RH  081%=      5-min Rain = 0
KFAS 200945Z 18009KT M01/M04 A3022 RMK A01 T10051035  RH  081%=      5-min Rain = 0
KFAS 200950Z 18008KT M01/M04 A3022 RMK A01 T10061035  RH  081%=      5-min Rain = 0
KFAS 200955Z 18007KT M01/M04 A3022 RMK A01 T10071036  RH  081%=      5-min Rain = 0
KFAS 201000Z 18008KT M01/M04 A3022 RMK A01 T10081036  RH  082%=      5-min Rain = 0
KFAS 201005Z 18008KT M01/M04 A3022 RMK A01 T10091036  RH  082%=      5-min Rain = 0
KFAS 201010Z 19009KT M01/M04 A3022 RMK A01 T10091035  RH  083%=      5-min Rain = 0
KFAS 201015Z 18009KT M01/M04 A3022 RMK A01 T10091035  RH  083%=      5-min Rain = 0
KFAS 201020Z 18009KT M01/M04 A3022 RMK A01 T10101036  RH  083%=      5-min Rain = 0
KFAS 201025Z 19008KT M01/M04 A3021 RMK A01 T10111036  RH  084%=      5-min Rain = 0
KFAS 201030Z 18008KT M01/M04 A3022 RMK A01 T10121036  RH  085%=      5-min Rain = 0
KFAS 201035Z 19009KT M01/M04 A3021 RMK A01 T10121035  RH  084%=      5-min Rain = 0
KFAS 201040Z 19009KT M01/M04 A3021 RMK A01 T10131037  RH  084%=      5-min Rain = 0
KFAS 201045Z 18009KT M02/M04 A3021 RMK A01 T10151037  RH  085%=      5-min Rain = 0
KFAS 201050Z 19009KT M01/M04 A3021 RMK A01 T10141036  RH  086%=      5-min Rain = 0
KFAS 201055Z 19009KT M02/M04 A302 RMK A01 T10151037  RH  086%=      5-min Rain = 0
KFAS 201100Z 18009KT M02/M04 A3021 RMK A01 T10171037  RH  086%=      5-min Rain = 0
KFAS 201105Z 19009KT M02/M04 A302 RMK A01 T10161036  RH  087%=      5-min Rain = 0
KFAS 201110Z 19009KT M02/M04 A302 RMK A01 T10171037  RH  087%=      5-min Rain = 0
KFAS 201115Z 17010KT M02/M04 A302 RMK A01 T10171037  RH  087%=      5-min Rain = 0
KFAS 201120Z 18009KT M02/M04 A3019 RMK A01 T10171036  RH  087%=      5-min Rain = 0
KFAS 201125Z 18010KT M02/M04 A302 RMK A01 T10161036  RH  087%=      5-min Rain = 0
KFAS 201130Z 18010KT M02/M04 A3019 RMK A01 T10161037  RH  086%=      5-min Rain = 0
KFAS 201135Z 18010KT M02/M04 A3019 RMK A01 T10171037  RH  086%=      5-min Rain = 0
KFAS 201140Z 18009KT M02/M04 A3019 RMK A01 T10171038  RH  086%=      5-min Rain = 0
KFAS 201145Z 18010KT M02/M04 A3019 RMK A01 T10171037  RH  086%=      5-min Rain = 0
KFAS 201150Z 19010KT M02/M04 A3018 RMK A01 T10181038  RH  086%=      5-min Rain = 0
KFAS 201155Z 18010KT M02/M04 A3019 RMK A01 T10181038  RH  087%=      5-min Rain = 0
KFAS 201200Z 18010KT M02/M04 A3019 RMK A01 T10181038  RH  087%=      5-min Rain = 0
KFAS 201205Z 19010KT M02/M04 A3018 RMK A01 T10181038  RH  086%=      5-min Rain = 0
KFAS 201210Z 18009KT M02/M04 A3018 RMK A01 T10191040  RH  086%=      5-min Rain = 0
KFAS 201215Z 18010KT M02/M04 A3019 RMK A01 T10191039  RH  087%=      5-min Rain = 0
KFAS 201220Z 19009KT M02/M04 A3019 RMK A01 T10191040  RH  086%=      5-min Rain = 0
KFAS 201225Z 18009KT M02/M04 A3019 RMK A01 T10211041  RH  086%=      5-min Rain = 0
KFAS 201230Z 19009KT M02/M04 A3019 RMK A01 T10221041  RH  087%=      5-min Rain = 0
KFAS 201235Z 19008KT M02/M04 A3019 RMK A01 T10231043  RH  087%=      5-min Rain = 0
KFAS 201240Z 19007KT M03/M04 A3019 RMK A01 T10251044  RH  087%=      5-min Rain = 0
KFAS 201245Z 19006KT M03/M05 A3019 RMK A01 T10271045  RH  087%=      5-min Rain = 0
KFAS 201250Z 19006KT M03/M05 A3019 RMK A01 T10281047  RH  088%=      5-min Rain = 0
KFAS 201255Z 19006KT M03/M05 A3019 RMK A01 T10291047  RH  088%=      5-min Rain = 0
KFAS 201300Z 19007KT M03/M05 A3019 RMK A01 T10301047  RH  088%=      5-min Rain = 0
KFAS 201305Z 19007KT M03/M05 A302 RMK A01 T10321049  RH  088%=      5-min Rain = 0
KFAS 201310Z 19007KT M03/M05 A302 RMK A01 T10321048  RH  089%=      5-min Rain = 0
KFAS 201315Z 19007KT M03/M05 A302 RMK A01 T10331048  RH  089%=      5-min Rain = 0
KFAS 201320Z 18008KT M03/M05 A302 RMK A01 T10321047  RH  090%=      5-min Rain = 0
KFAS 201325Z 18009KT M03/M05 A302 RMK A01 T10311046  RH  090%=      5-min Rain = 0
KFAS 201330Z 19008KT M03/M05 A302 RMK A01 T10301046  RH  089%=      5-min Rain = 0
KFAS 201335Z 18007KT M03/M05 A302 RMK A01 T10311047  RH  089%=      5-min Rain = 0
KFAS 201340Z 19007KT M03/M05 A302 RMK A01 T10311047  RH  089%=      5-min Rain = 0
KFAS 201345Z 19007KT M03/M05 A302 RMK A01 T10311048  RH  089%=      5-min Rain = 0
KFAS 201350Z 19007KT M03/M05 A302 RMK A01 T10331049  RH  089%=      5-min Rain = 0
KFAS 201355Z 19006KT M03/M05 A3021 RMK A01 T10331048  RH  089%=      5-min Rain = 0
KFAS 201400Z 20006KT M03/M05 A3021 RMK A01 T10321048  RH  089%=      5-min Rain = 0
KFAS 201405Z 20005KT M03/M05 A3021 RMK A01 T10331050  RH  089%=      5-min Rain = 0
KFAS 201410Z 20005KT M03/M05 A3021 RMK A01 T10341051  RH  089%=      5-min Rain = 0
KFAS 201415Z 20006KT M04/M05 A302 RMK A01 T10351051  RH  089%=      5-min Rain = 0
KFAS 201420Z 20006KT M03/M05 A302 RMK A01 T10341049  RH  090%=      5-min Rain = 0
KFAS 201425Z 20007KT M03/M05 A302 RMK A01 T10331047  RH  090%=      5-min Rain = 0
KFAS 201430Z 20006KT M03/M05 A302 RMK A01 T10321046  RH  090%=      5-min Rain = 0
KFAS 201435Z 20006KT M03/M04 A302 RMK A01 T10301044  RH  090%=      5-min Rain = 0
KFAS 201440Z 21007KT M03/M04 A302 RMK A01 T10271042  RH  090%=      5-min Rain = 0
KFAS 201445Z 21008KT M02/M04 A302 RMK A01 T10241041  RH  089%=      5-min Rain = 0
KFAS 201450Z 20007KT M02/M04 A302 RMK A01 T10221041  RH  088%=      5-min Rain = 0
KFAS 201455Z 20007KT M02/M04 A302 RMK A01 T10211040  RH  087%=      5-min Rain = 0
KFAS 201500Z 20007KT M02/M04 A302 RMK A01 T10191038  RH  087%=      5-min Rain = 0
KFAS 201505Z 20007KT M02/M04 A302 RMK A01 T10171036  RH  087%=      5-min Rain = 0
KFAS 201510Z 21007KT M01/M04 A302 RMK A01 T10141035  RH  086%=      5-min Rain = 0
KFAS 201515Z 20008KT M01/M03 A3019 RMK A01 T10121034  RH  086%=      5-min Rain = 0
KFAS 201520Z 20008KT M01/M03 A3019 RMK A01 T10091034  RH  084%=      5-min Rain = 0
KFAS 201525Z 20008KT M01/M03 A3019 RMK A01 T10061032  RH  083%=      5-min Rain = 0
KFAS 201530Z 19008KT M00/M03 A3019 RMK A01 T10031032  RH  081%=      5-min Rain = 0
KFAS 201535Z 20009KT M00/M03 A3019 RMK A01 T10011033  RH  079%=      5-min Rain = 0
KFAS 201540Z 20008KT 00/M03 A3019 RMK A01 T00021031  RH  079%=      5-min Rain = 0
KFAS 201545Z 19008KT 01/M03 A3019 RMK A01 T00051029  RH  078%=      5-min Rain = 0
KFAS 201550Z 20008KT 01/M03 A3019 RMK A01 T00101027  RH  077%=      5-min Rain = 0
KFAS 201555Z 20009KT 01/M03 A3019 RMK A01 T00141026  RH  075%=      5-min Rain = 0
KFAS 201600Z 20008KT 02/M02 A3019 RMK A01 T00171024  RH  075%=      5-min Rain = 0
KFAS 201605Z 20009KT 02/M02 A3019 RMK A01 T00201024  RH  073%=      5-min Rain = 0
KFAS 201610Z 20008KT 02/M02 A3019 RMK A01 T00241024  RH  071%=      5-min Rain = 0
KFAS 201615Z 20008KT 03/M03 A3019 RMK A01 T00271025  RH  069%=      5-min Rain = 0
KFAS 201620Z 21009KT 03/M03 A3019 RMK A01 T00311027  RH  067%=      5-min Rain = 0
KFAS 201625Z 20009KT 03/M03 A3019 RMK A01 T00311028  RH  065%=      5-min Rain = 0
KFAS 201630Z 20008KT 04/M03 A3018 RMK A01 T00351026  RH  065%=      5-min Rain = 0
KFAS 201635Z 20009KT 04/M03 A3018 RMK A01 T00361029  RH  063%=      5-min Rain = 0
KFAS 201640Z 21009KT 04/M03 A3018 RMK A01 T00381026  RH  064%=      5-min Rain = 0
KFAS 201645Z 20008KT 04/M02 A3018 RMK A01 T00411023  RH  064%=      5-min Rain = 0
KFAS 201650Z 20009KT 05/M02 A3018 RMK A01 T00451022  RH  062%=      5-min Rain = 0
KFAS 201655Z 20011KT 05/M02 A3018 RMK A01 T00481023  RH  061%=      5-min Rain = 0
KFAS 201700Z 20011KT 05/M02 A3018 RMK A01 T00501022  RH  060%=      5-min Rain = 0
KFAS 201705Z 21012KT 05/M02 A3018 RMK A01 T00541024  RH  058%=      5-min Rain = 0
KFAS 201710Z 21012KT 06/M02 A3018 RMK A01 T00561022  RH  058%=      5-min Rain = 0
KFAS 201715Z 21011KT 06/M02 A3018 RMK A01 T00591021  RH  057%=      5-min Rain = 0
KFAS 201720Z 21011KT 06/M02 A3018 RMK A01 T00611020  RH  057%=      5-min Rain = 0
KFAS 201725Z 21011KT 07/M02 A3018 RMK A01 T00651017  RH  056%=      5-min Rain = 0
KFAS 201730Z 21011KT 07/M02 A3018 RMK A01 T00691016  RH  055%=      5-min Rain = 0
KFAS 201735Z 21011KT 07/M02 A3018 RMK A01 T00741016  RH  053%=      5-min Rain = 0
KFAS 201740Z 21011KT 08/M02 A3018 RMK A01 T00771015  RH  053%=      5-min Rain = 0
KFAS 201745Z 21012KT 08/M01 A3018 RMK A01 T00791014  RH  052%=      5-min Rain = 0
KFAS 201750Z 21011KT 08/M02 A3018 RMK A01 T00791018  RH  051%=      5-min Rain = 0
KFAS 201755Z 22012KT 08/M02 A3017 RMK A01 T00761020  RH  051%=      5-min Rain = 0
KFAS 201800Z 22011KT 08/M02 A3017 RMK A01 T00761019  RH  051%=      5-min Rain = 0
KFAS 201805Z 21012KT 08/M02 A3016 RMK A01 T00801021  RH  049%=      5-min Rain = 0
KFAS 201810Z 21012KT 09/M02 A3016 RMK A01 T00851021  RH  048%=      5-min Rain = 0
KFAS 201815Z 21011KT 09/M02 A3016 RMK A01 T00871021  RH  047%=      5-min Rain = 0
KFAS 201820Z 22010KT 09/M02 A3015 RMK A01 T00901021  RH  046%=      5-min Rain = 0
KFAS 201825Z 23010KT 09/M02 A3015 RMK A01 T00911022  RH  045%=      5-min Rain = 0
KFAS 201830Z 23012KT 09/M02 A3015 RMK A01 T00921023  RH  045%=      5-min Rain = 0
KFAS 201835Z 22013KT 09/M02 A3015 RMK A01 T00941021  RH  045%=      5-min Rain = 0
KFAS 201840Z 22012G18KT 10/M02 A3015 RMK A01 T01001019  RH  044%=      5-min Rain = 0
KFAS 201845Z 22013KT 11/M02 A3014 RMK A01 T01051020  RH  042%=      5-min Rain = 0
KFAS 201850Z 22013KT 11/M02 A3013 RMK A01 T01091020  RH  041%=      5-min Rain = 0
KFAS 201855Z 22014KT 11/M02 A3013 RMK A01 T01061023  RH  041%=      5-min Rain = 0
KFAS 201900Z 22012KT 11/M02 A3013 RMK A01 T01051021  RH  042%=      5-min Rain = 0
KFAS 201905Z 21014KT 10/M02 A3012 RMK A01 T01031022  RH  042%=      5-min Rain = 0
KFAS 201910Z 22014KT 10/M03 A3012 RMK A01 T01041025  RH  041%=      5-min Rain = 0
KFAS 201915Z 22014KT 11/M02 A3012 RMK A01 T01051024  RH  041%=      5-min Rain = 0
KFAS 201920Z 23014KT 11/M03 A3012 RMK A01 T01061025  RH  040%=      5-min Rain = 0
KFAS 201925Z 23013KT 11/M03 A3012 RMK A01 T01071025  RH  040%=      5-min Rain = 0
KFAS 201930Z 22014KT 11/M03 A3011 RMK A01 T01101025  RH  039%=      5-min Rain = 0
KFAS 201935Z 22013KT 11/M02 A3011 RMK A01 T01081023  RH  040%=      5-min Rain = 0
KFAS 201940Z 22012G17KT 11/M02 A3011 RMK A01 T01121022  RH  040%=      5-min Rain = 0
KFAS 201945Z 22012KT 11/M02 A301 RMK A01 T01131021  RH  039%=      5-min Rain = 0
KFAS 201950Z 23013KT 12/M02 A301 RMK A01 T01181023  RH  038%=      5-min Rain = 0
KFAS 201955Z 24013KT 12/M03 A3009 RMK A01 T01211030  RH  035%=      5-min Rain = 0
KFAS 202000Z 25015KT 12/M03 A3009 RMK A01 T01221031  RH  034%=      5-min Rain = 0
KFAS 202005Z 24013KT 12/M03 A3008 RMK A01 T01231030  RH  035%=      5-min Rain = 0
KFAS 202010Z 23013KT 13/M03 A3008 RMK A01 T01281030  RH  033%=      5-min Rain = 0
KFAS 202015Z 24013KT 13/M03 A3008 RMK A01 T01321031  RH  032%=      5-min Rain = 0
KFAS 202020Z 24012G17KT 14/M03 A3007 RMK A01 T01361029  RH  032%=      5-min Rain = 0
KFAS 202025Z 24014KT 14/M03 A3007 RMK A01 T01391031  RH  031%=      5-min Rain = 0
KFAS 202030Z 24012KT 14/M03 A3007 RMK A01 T01371030  RH  031%=      5-min Rain = 0
KFAS 202035Z 24012KT 14/M03 A3007 RMK A01 T01391030  RH  031%=      5-min Rain = 0
KFAS 202040Z 24012KT 14/M03 A3006 RMK A01 T01421030  RH  030%=      5-min Rain = 0
KFAS 202045Z 24011KT 15/M03 A3006 RMK A01 T01471030  RH  030%=      5-min Rain = 0
KFAS 202050Z 24013KT 15/M03 A3006 RMK A01 T01521030  RH  029%=      5-min Rain = 0
KFAS 202055Z 24014G19KT 15/M03 A3006 RMK A01 T01541031  RH  028%=      5-min Rain = 0
KFAS 202100Z 24014KT 15/M03 A3006 RMK A01 T01531030  RH  028%=      5-min Rain = 0
KFAS 202105Z 25012G18KT 16/M03 A3005 RMK A01 T01591029  RH  028%=      5-min Rain = 0
KFAS 202110Z 24013KT 16/M03 A3005 RMK A01 T01601031  RH  027%=      5-min Rain = 0
KFAS 202115Z 24013G18KT 16/M03 A3005 RMK A01 T01611030  RH  027%=      5-min Rain = 0
KFAS 202120Z 24013KT 16/M03 A3005 RMK A01 T01581032  RH  027%=      5-min Rain = 0
KFAS 202125Z 24012G17KT 16/M03 A3005 RMK A01 T01601031  RH  027%=      5-min Rain = 0
KFAS 202130Z 25013KT 16/M03 A3005 RMK A01 T01621030  RH  027%=      5-min Rain = 0
KFAS 202135Z 25014G19KT 16/M03 A3005 RMK A01 T01641029  RH  027%=      5-min Rain = 0
KFAS 202140Z 24015KT 17/M03 A3004 RMK A01 T01661027  RH  027%=      5-min Rain = 0
KFAS 202145Z 25013G18KT 17/M03 A3004 RMK A01 T01691025  RH  027%=      5-min Rain = 0
KFAS 202150Z 27012G17KT 17/M03 A3004 RMK A01 T01681026  RH  026%=      5-min Rain = 0
KFAS 202155Z 25010G16KT 17/M02 A3004 RMK A01 T01671024  RH  027%=      5-min Rain = 0
KFAS 202200Z 25013G18KT 17/M02 A3004 RMK A01 T01711023  RH  027%=      5-min Rain = 0
KFAS 202205Z 25011KT 17/M02 A3004 RMK A01 T01701024  RH  027%=      5-min Rain = 0
KFAS 202210Z 24012G18KT 17/M02 A3004 RMK A01 T01731024  RH  026%=      5-min Rain = 0
KFAS 202215Z 23011KT 17/M03 A3004 RMK A01 T01721026  RH  026%=      5-min Rain = 0
KFAS 202220Z 22012KT 17/M03 A3004 RMK A01 T01701025  RH  026%=      5-min Rain = 0
KFAS 202225Z 23010KT 17/M02 A3003 RMK A01 T01721024  RH  026%=      5-min Rain = 0
KFAS 202230Z 22011KT 17/M02 A3003 RMK A01 T01711024  RH  026%=      5-min Rain = 0
KFAS 202235Z 22011KT 17/M02 A3003 RMK A01 T01681023  RH  027%=      5-min Rain = 0
KFAS 202240Z 21011KT 17/M02 A3003 RMK A01 T01671021  RH  028%=      5-min Rain = 0
KFAS 202245Z 21011KT 16/M02 A3003 RMK A01 T01641019  RH  029%=      5-min Rain = 0
KFAS 202250Z 21008KT 16/M02 A3003 RMK A01 T01641016  RH  029%=      5-min Rain = 0
KFAS 202255Z 21008KT 16/M02 A3003 RMK A01 T01621018  RH  029%=      5-min Rain = 0
KFAS 202300Z 21007KT 16/M02 A3002 RMK A01 T01561015  RH  031%=      5-min Rain = 0
KFAS 202305Z 21008KT 15/M02 A3002 RMK A01 T01511016  RH  032%=      5-min Rain = 0
KFAS 202310Z 20007KT 15/M01 A3002 RMK A01 T01501014  RH  033%=      5-min Rain = 0
KFAS 202315Z 20007KT 15/M01 A3002 RMK A01 T01471007  RH  035%=      5-min Rain = 0
KFAS 202320Z 19006KT 15/M00 A3002 RMK A01 T01451003  RH  037%=      5-min Rain = 0
KFAS 202325Z 19006KT 14/M00 A3002 RMK A01 T01441001  RH  037%=      5-min Rain = 0
KFAS 202330Z 19006KT 14/M00 A3002 RMK A01 T01431001  RH  037%=      5-min Rain = 0
KFAS 202335Z 19006KT 14/M00 A3002 RMK A01 T01421002  RH  038%=      5-min Rain = 0
KFAS 202340Z 20007KT 14/00 A3002 RMK A01 T01380000  RH  039%=      5-min Rain = 0
KFAS 202345Z 20007KT 13/00 A3002 RMK A01 T01330004  RH  042%=      5-min Rain = 0
KFAS 202350Z 20007KT 13/00 A3002 RMK A01 T01280004  RH  043%=      5-min Rain = 0
KFAS 202355Z 20007KT 12/00 A3002 RMK A01 T01200004  RH  045%=      5-min Rain = 0
KFAS 210000Z 20008KT 11/00 A3002 RMK A01 T01130004  RH  048%=      5-min Rain = 0
KFAS 210005Z 20008KT 11/00 A3002 RMK A01 T01070004  RH  050%=      5-min Rain = 0
KFAS 210010Z 19008KT 10/00 A3002 RMK A01 T01000004  RH  052%=      5-min Rain = 0
KFAS 210015Z 20009KT 10/00 A3001 RMK A01 T00960001  RH  052%=      5-min Rain = 0
KFAS 210020Z 19008KT 09/00 A3001 RMK A01 T00910000  RH  053%=      5-min Rain = 0
KFAS 210025Z 19008KT 09/M00 A3001 RMK A01 T00891003  RH  053%=      5-min Rain = 0
KFAS 210030Z 19008KT 09/M01 A3001 RMK A01 T00861006  RH  053%=      5-min Rain = 0
KFAS 210035Z 18009KT 09/M01 A3001 RMK A01 T00861005  RH  053%=      5-min Rain = 0
KFAS 210040Z 19010KT 09/M01 A3001 RMK A01 T00891005  RH  052%=      5-min Rain = 0
KFAS 210045Z 19011KT 10/M01 A3001 RMK A01 T00961006  RH  049%=      5-min Rain = 0
KFAS 210050Z 19011KT 09/M01 A30 RMK A01 T00931007  RH  050%=      5-min Rain = 0
KFAS 210055Z 18010KT 09/M01 A3001 RMK A01 T00911008  RH  050%=      5-min Rain = 0
KFAS 210100Z 19011KT 09/M01 A3001 RMK A01 T00851008  RH  052%=      5-min Rain = 0
KFAS 210105Z 19010KT 08/M01 A3001 RMK A01 T00801009  RH  054%=      5-min Rain = 0
KFAS 210110Z 18010KT 08/M01 A30 RMK A01 T00821009  RH  053%=      5-min Rain = 0
KFAS 210115Z 19011KT 08/M01 A30 RMK A01 T00801010  RH  054%=      5-min Rain = 0
KFAS 210120Z 19011KT 08/M01 A3001 RMK A01 T00791011  RH  053%=      5-min Rain = 0
KFAS 210125Z 18012KT 09/M01 A3001 RMK A01 T00941012  RH  048%=      5-min Rain = 0
KFAS 210130Z 18011KT 10/M01 A30 RMK A01 T01021013  RH  045%=      5-min Rain = 0
KFAS 210135Z 19010KT 10/M01 A3001 RMK A01 T00971012  RH  047%=      5-min Rain = 0
KFAS 210140Z 18008KT 08/M01 A3001 RMK A01 T00831012  RH  052%=      5-min Rain = 0
KFAS 210145Z 18009KT 08/M01 A30 RMK A01 T00751013  RH  054%=      5-min Rain = 0
KFAS 210150Z 19010KT 07/M01 A30 RMK A01 T00721014  RH  055%=      5-min Rain = 0
KFAS 210155Z 19011KT 07/M01 A30 RMK A01 T00701014  RH  056%=      5-min Rain = 0
KFAS 210200Z 19010KT 07/M02 A30 RMK A01 T00691015  RH  056%=      5-min Rain = 0
KFAS 210205Z 19010KT 06/M02 A30 RMK A01 T00641016  RH  057%=      5-min Rain = 0
KFAS 210210Z 19010KT 06/M02 A30 RMK A01 T00571016  RH  060%=      5-min Rain = 0
KFAS 210215Z 19011KT 06/M02 A30 RMK A01 T00561016  RH  060%=      5-min Rain = 0
KFAS 210220Z 20012KT 06/M02 A30 RMK A01 T00631018  RH  057%=      5-min Rain = 0
KFAS 210225Z 20012KT 07/M02 A30 RMK A01 T00651019  RH  055%=      5-min Rain = 0
KFAS 210230Z 20012KT 07/M02 A30 RMK A01 T00661020  RH  055%=      5-min Rain = 0
KFAS 210235Z 20012KT 06/M02 A30 RMK A01 T00631020  RH  056%=      5-min Rain = 0
KFAS 210240Z 20012KT 06/M02 A30 RMK A01 T00601020  RH  057%=      5-min Rain = 0
KFAS 210245Z 20011KT 06/M02 A30 RMK A01 T00561021  RH  058%=      5-min Rain = 0
KFAS 210250Z 20011KT 05/M02 A30 RMK A01 T00541021  RH  059%=      5-min Rain = 0
KFAS 210255Z 20010KT 05/M02 A30 RMK A01 T00511021  RH  060%=      5-min Rain = 0
KFAS 210300Z 20010KT 05/M02 A2999 RMK A01 T00471021  RH  062%=      5-min Rain = 0
KFAS 210305Z 20010KT 05/M02 A2999 RMK A01 T00451021  RH  063%=      5-min Rain = 0
KFAS 210310Z 20010KT 04/M02 A2999 RMK A01 T00421022  RH  064%=      5-min Rain = 0
KFAS 210315Z 21009KT 04/M02 A2999 RMK A01 T00391023  RH  064%=      5-min Rain = 0
KFAS 210320Z 20009KT 04/M02 A2999 RMK A01 T00371023  RH  065%=      5-min Rain = 0
KFAS 210325Z 20009KT 04/M02 A2999 RMK A01 T00371023  RH  065%=      5-min Rain = 0
KFAS 210330Z 20009KT 04/M02 A2999 RMK A01 T00361024  RH  065%=      5-min Rain = 0
KFAS 210335Z 21008KT 03/M03 A2999 RMK A01 T00331026  RH  066%=      5-min Rain = 0
KFAS 210340Z 21009KT 03/M03 A2999 RMK A01 T00331027  RH  066%=      5-min Rain = 0
KFAS 210345Z 21010KT 04/M03 A2999 RMK A01 T00391027  RH  062%=      5-min Rain = 0
KFAS 210350Z 21011KT 05/M03 A2999 RMK A01 T00461027  RH  059%=      5-min Rain = 0
KFAS 210355Z 21011KT 05/M03 A2999 RMK A01 T00481027  RH  059%=      5-min Rain = 0
KFAS 210400Z 21010KT 05/M03 A2999 RMK A01 T00481028  RH  058%=      5-min Rain = 0
KFAS 210405Z 21011KT 04/M03 A2998 RMK A01 T00441028  RH  060%=      5-min Rain = 0
KFAS 210410Z 21012KT 05/M03 A2998 RMK A01 T00461028  RH  059%=      5-min Rain = 0
KFAS 210415Z 21012KT 05/M03 A2998 RMK A01 T00451029  RH  059%=      5-min Rain = 0
KFAS 210420Z 21012KT 04/M03 A2998 RMK A01 T00401029  RH  061%=      5-min Rain = 0
KFAS 210425Z 21012KT 04/M03 A2998 RMK A01 T00381029  RH  062%=      5-min Rain = 0
KFAS 210430Z 21011KT 04/M03 A2998 RMK A01 T00371029  RH  062%=      5-min Rain = 0
KFAS 210435Z 21010KT 04/M03 A2998 RMK A01 T00391030  RH  061%=      5-min Rain = 0
KFAS 210440Z 20011KT 04/M03 A2998 RMK A01 T00381029  RH  062%=      5-min Rain = 0
KFAS 210445Z 21012KT 04/M03 A2998 RMK A01 T00371028  RH  063%=      5-min Rain = 0
KFAS 210450Z 21012KT 04/M03 A2998 RMK A01 T00381028  RH  062%=      5-min Rain = 0
KFAS 210455Z 21013KT 04/M03 A2998 RMK A01 T00421029  RH  061%=      5-min Rain = 0
KFAS 210500Z 21013KT 04/M03 A2998 RMK A01 T00431030  RH  060%=      5-min Rain = 0
KFAS 210505Z 21014KT 04/M03 A2998 RMK A01 T00391029  RH  062%=      5-min Rain = 0
KFAS 210510Z 20012KT 04/M03 A2998 RMK A01 T00361030  RH  063%=      5-min Rain = 0
KFAS 210515Z 19010KT 03/M03 A2998 RMK A01 T00331030  RH  064%=      5-min Rain = 0
KFAS 210520Z 19011KT 03/M03 A2998 RMK A01 T00331029  RH  064%=      5-min Rain = 0
KFAS 210525Z 20012KT 03/M03 A2998 RMK A01 T00331029  RH  064%=      5-min Rain = 0
KFAS 210530Z 20013G18KT 04/M03 A2998 RMK A01 T00391030  RH  061%=      5-min Rain = 0
KFAS 210535Z 20013KT 05/M03 A2997 RMK A01 T00491032  RH  056%=      5-min Rain = 0
KFAS 210540Z 20015KT 06/M04 A2997 RMK A01 T00571035  RH  052%=      5-min Rain = 0
KFAS 210545Z 21015KT 06/M04 A2997 RMK A01 T00601036  RH  051%=      5-min Rain = 0
KFAS 210550Z 21014G20KT 06/M04 A2997 RMK A01 T00591036  RH  051%=      5-min Rain = 0
KFAS 210555Z 21014KT 06/M04 A2997 RMK A01 T00571036  RH  051%=      5-min Rain = 0

Page generated in 0.0093 seconds.